Time;durP1;ratioP1;P1;durP2;ratioP2;P2;SDS_P1;SDS_P2;PMS_P1;PMS_P2;Temp;Humidity;BMP_temperature;BMP_pressure;BME280_temperature;BME280_humidity;BME280_pressure;Samples;Min_cycle;Max_cycle;Signal;HPM_P1;HPM_P2
2023/02/10 00:01:04;;;;;;;40.13;27.70;;;-4.20;99.90;;;-3.53;94.44;99812.22;5229234;28;20220;-81
2023/02/10 00:03:38;;;;;;;38.87;26.23;;;-4.20;99.90;;;-3.55;94.07;99811.09;5230968;28;20308;-82
2023/02/10 00:06:13;;;;;;;44.47;27.03;;;-4.20;99.90;;;-3.57;93.93;99812.47;5230297;28;20676;-83
2023/02/10 00:08:48;;;;;;;43.03;27.80;;;-4.30;99.90;;;-3.58;94.21;99820.63;5231776;28;20647;-82
2023/02/10 00:11:55;;;;;;;47.30;29.57;;;-4.30;99.90;;;-3.58;93.90;99825.63;5229187;28;20285;-83
2023/02/10 00:14:17;;;;;;;49.47;29.87;;;-4.30;99.90;;;-3.57;94.53;99817.47;5224796;28;20222;-84
2023/02/10 00:16:53;;;;;;;44.83;27.27;;;-4.30;99.90;;;-3.57;93.74;99822.47;5228874;28;20194;-83
2023/02/10 00:19:28;;;;;;;38.73;26.80;;;-4.30;99.90;;;-3.65;93.45;99823.88;5227569;28;20296;-83
2023/02/10 00:22:04;;;;;;;38.43;26.53;;;-4.40;99.90;;;-3.74;93.29;99823.47;5226315;28;20291;-82
2023/02/10 00:24:37;;;;;;;40.07;25.07;;;-4.40;99.90;;;-3.78;93.65;99820.28;5220983;28;20232;-83
2023/02/10 00:27:10;;;;;;;44.17;28.67;;;-4.50;99.90;;;-3.83;93.92;99816.22;5229963;28;20207;-83
2023/02/10 00:29:44;;;;;;;47.50;29.00;;;-4.50;99.90;;;-3.87;93.88;99807.38;5226183;28;20223;-84
2023/02/10 00:32:18;;;;;;;40.10;26.60;;;-4.50;99.90;;;-3.87;93.70;99808.28;5229928;28;20201;-82
2023/02/10 00:34:52;;;;;;;38.10;26.17;;;-4.50;99.90;;;-3.91;92.88;99810.16;5224858;28;20189;-83
2023/02/10 00:37:25;;;;;;;39.07;25.33;;;-4.60;99.90;;;-4.01;93.28;99809.50;5224214;28;20201;-83
2023/02/10 00:39:58;;;;;;;35.57;25.50;;;-4.60;99.90;;;-4.03;93.91;99816.78;5227752;28;20594;-84
2023/02/10 00:42:32;;;;;;;36.87;26.73;;;-4.70;99.90;;;-3.95;93.84;99820.38;5223132;28;20197;-83
2023/02/10 00:45:06;;;;;;;37.90;26.23;;;-4.60;99.90;;;-3.94;94.39;99824.69;5225750;28;20220;-82
2023/02/10 00:47:41;;;;;;;38.10;25.67;;;-4.60;99.90;;;-3.93;93.75;99824.00;5227620;28;20254;-84
2023/02/10 00:50:14;;;;;;;41.00;27.13;;;-4.60;99.90;;;-4.01;93.46;99829.47;5227635;28;20221;-84
2023/02/10 00:52:47;;;;;;;39.63;25.80;;;-4.70;99.90;;;-4.06;93.88;99826.31;5227226;28;20217;-84
2023/02/10 00:55:20;;;;;;;40.20;26.13;;;-4.70;99.90;;;-4.03;93.77;99819.28;5225521;28;20197;-83
2023/02/10 00:57:53;;;;;;;38.70;25.50;;;-4.70;99.90;;;-4.08;94.48;99821.09;5227542;28;20236;-84
2023/02/10 01:00:27;;;;;;;41.60;26.83;;;-4.70;99.90;;;-4.13;95.05;99829.50;5228032;28;20300;-83
2023/02/10 01:03:01;;;;;;;36.87;24.27;;;-4.80;99.90;;;-4.17;94.82;99833.84;5223620;28;20225;-83
2023/02/10 01:05:34;;;;;;;38.13;25.77;;;-4.80;99.90;;;-4.11;94.99;99833.13;5224434;28;20213;-83
2023/02/10 01:08:08;;;;;;;36.83;25.17;;;-4.80;99.90;;;-4.11;95.30;99848.13;5225935;28;20205;-83
2023/02/10 01:10:42;;;;;;;38.70;25.90;;;-4.80;99.90;;;-4.08;94.29;99848.56;5221443;28;20224;-83
2023/02/10 01:13:16;;;;;;;35.87;24.63;;;-4.80;99.90;;;-4.11;94.05;99855.59;5228938;28;20229;-83
2023/02/10 01:15:49;;;;;;;37.00;25.83;;;-4.90;99.90;;;-4.24;93.05;99857.00;5226235;28;20292;-83
2023/02/10 01:18:24;;;;;;;35.53;24.00;;;-4.90;99.90;;;-4.24;94.33;99853.59;5227190;28;20229;-83
2023/02/10 01:20:58;;;;;;;40.03;26.87;;;-4.90;99.90;;;-4.25;93.89;99851.78;5228582;28;20211;-83
2023/02/10 01:23:31;;;;;;;36.17;24.90;;;-4.90;99.90;;;-4.36;93.57;99855.22;5227515;28;20223;-84
2023/02/10 01:26:05;;;;;;;39.77;26.30;;;-4.90;99.90;;;-4.38;93.02;99854.06;5229401;28;20307;-84
2023/02/10 01:28:38;;;;;;;38.10;25.67;;;-5.00;99.90;;;-4.33;94.01;99853.16;5225898;28;20206;-80
2023/02/10 01:31:14;;;;;;;40.73;26.50;;;-5.00;99.90;;;-4.41;93.84;99853.63;5230221;28;20270;-84
2023/02/10 01:33:53;;;;;;;36.53;24.87;;;-5.10;99.90;;;-4.38;93.79;99844.09;5230860;28;20303;-83
2023/02/10 01:36:27;;;;;;;41.37;27.87;;;-5.00;99.90;;;-4.34;93.98;99843.88;5225149;28;20207;-80
2023/02/10 01:39:00;;;;;;;41.00;27.30;;;-5.10;99.90;;;-4.39;95.00;99852.28;5224356;28;20229;-83
2023/02/10 01:41:33;;;;;;;38.47;27.70;;;-5.00;99.90;;;-4.38;94.30;99845.03;5227873;28;20259;-84
2023/02/10 01:44:46;;;;;;;40.00;27.47;;;-5.00;99.90;;;-4.38;94.75;99845.03;5228537;28;20225;-82
2023/02/10 01:47:22;;;;;;;40.77;27.53;;;-5.00;99.90;;;-4.32;94.63;99833.44;5227841;28;20618;-84
2023/02/10 01:49:57;;;;;;;44.40;27.27;;;-4.90;99.90;;;-4.34;95.32;99837.28;5225177;28;20259;-84
2023/02/10 01:52:32;;;;;;;37.43;26.37;;;-5.00;99.90;;;-4.30;95.79;99837.03;5227236;28;20204;-83
2023/02/10 01:55:08;;;;;;;40.83;26.00;;;-5.00;99.90;;;-4.38;95.98;99840.03;5229996;28;20193;-84
2023/02/10 01:57:45;;;;;;;39.40;26.80;;;-5.00;99.90;;;-4.36;96.43;99830.25;5227225;28;20635;-84
2023/02/10 02:00:18;;;;;;;38.80;26.67;;;-4.90;99.90;;;-4.38;96.16;99834.13;5227750;28;20197;-83
2023/02/10 02:02:51;;;;;;;38.23;26.57;;;-5.00;99.90;;;-4.38;95.54;99832.56;5228461;28;20229;-83
2023/02/10 02:05:35;;;;;;;40.80;27.40;;;-5.00;99.90;;;-4.34;96.86;99827.31;5226437;28;20221;-84
2023/02/10 02:08:12;;;;;;;42.43;27.43;;;-4.90;99.90;;;-4.30;95.71;99828.66;5228454;28;20209;-84
2023/02/10 02:11:10;;;;;;;37.07;25.67;;;-4.90;99.90;;;-4.28;95.10;99828.88;5228455;28;20283;-84
2023/02/10 02:14:11;;;;;;;38.43;25.03;;;-4.90;99.90;;;-4.33;95.81;99835.69;5228523;28;20324;-83
2023/02/10 02:17:03;;;;;;;37.30;26.40;;;-5.00;99.90;;;-4.36;95.59;99841.13;5226726;28;20208;-83
2023/02/10 02:23:34;;;;;;;38.23;26.50;;;-5.00;99.90;;;-4.39;95.58;99843.19;5224759;28;20320;-83
2023/02/10 02:26:41;;;;;;;40.63;25.67;;;-5.00;99.90;;;-4.32;95.54;99859.97;5222981;28;20321;-84
2023/02/10 02:29:51;;;;;;;39.77;24.53;;;-5.10;99.90;;;-4.35;93.78;99855.47;5212827;28;20212;-84
2023/02/10 02:32:28;;;;;;;38.00;24.87;;;-5.10;99.90;;;-4.35;93.22;99859.50;5219689;28;20694;-84
2023/02/10 02:35:06;;;;;;;37.33;24.87;;;-5.20;99.90;;;-4.39;93.80;99867.25;5229303;28;20216;-84
2023/02/10 02:37:42;;;;;;;34.87;23.43;;;-5.20;99.90;;;-4.48;93.14;99860.91;5231558;28;20202;-83
2023/02/10 02:40:18;;;;;;;36.87;24.67;;;-5.30;99.90;;;-4.58;93.44;99863.63;5223196;28;20283;-84
2023/02/10 02:42:51;;;;;;;38.60;26.23;;;-5.30;99.90;;;-4.62;94.93;99862.28;5227108;28;20591;-83
2023/02/10 02:45:32;;;;;;;37.87;25.03;;;-5.30;99.90;;;-4.62;94.70;99864.78;5223170;28;20252;-83
2023/02/10 02:48:22;;;;;;;39.23;25.87;;;-5.30;99.90;;;-4.65;94.49;99875.91;5228693;28;20239;-83
2023/02/10 02:51:05;;;;;;;36.83;25.47;;;-5.30;99.90;;;-4.74;94.38;99872.94;5223491;28;20225;-84
2023/02/10 02:53:47;;;;;;;40.03;25.73;;;-5.40;99.90;;;-4.77;95.43;99878.38;5232565;28;20252;-84
2023/02/10 02:56:33;;;;;;;35.07;23.83;;;-5.40;99.90;;;-4.76;94.86;99874.31;5231401;28;20217;-84
2023/02/10 02:59:33;;;;;;;36.00;25.17;;;-5.40;99.90;;;-4.77;95.24;99889.97;5231069;28;20264;-84
2023/02/10 03:02:11;;;;;;;36.07;24.43;;;-5.40;99.90;;;-4.77;95.14;99879.97;5223385;28;20259;-84
2023/02/10 03:04:46;;;;;;;36.93;24.97;;;-5.50;99.90;;;-4.77;94.96;99882.47;5225248;28;20837;-82
2023/02/10 03:07:19;;;;;;;38.33;25.93;;;-5.40;99.90;;;-4.74;94.93;99885.41;5232297;28;20625;-84
2023/02/10 03:09:52;;;;;;;35.33;24.47;;;-5.40;99.90;;;-4.78;94.73;99888.13;5229463;28;20240;-84
2023/02/10 03:12:25;;;;;;;38.33;26.53;;;-5.50;99.90;;;-4.81;94.99;99885.19;5232480;28;20197;-81
2023/02/10 03:14:58;;;;;;;37.77;25.60;;;-5.50;99.90;;;-4.86;94.75;99883.63;5228415;28;20229;-83
2023/02/10 03:17:31;;;;;;;36.67;25.77;;;-5.50;99.90;;;-4.89;94.10;99890.59;5231482;28;20208;-84
2023/02/10 03:20:07;;;;;;;41.87;26.47;;;-5.60;99.90;;;-5.06;93.73;99888.13;5225516;28;20206;-83
2023/02/10 03:22:42;;;;;;;38.27;25.60;;;-5.70;99.90;;;-5.04;94.24;99877.69;5225382;28;20204;-84
2023/02/10 03:25:15;;;;;;;39.33;26.63;;;-5.70;99.90;;;-5.01;94.77;99897.16;5226021;28;20252;-84
2023/02/10 03:27:49;;;;;;;41.30;27.33;;;-5.60;99.90;;;-4.95;94.83;99885.66;5233299;28;20197;-84
2023/02/10 03:30:22;;;;;;;41.80;27.30;;;-5.60;99.90;;;-4.95;94.55;99882.22;5225760;28;20304;-83
2023/02/10 03:32:56;;;;;;;44.23;27.90;;;-5.60;99.90;;;-4.92;95.65;99883.59;5226582;28;20716;-84
2023/02/10 03:35:30;;;;;;;41.93;29.43;;;-5.50;99.90;;;-4.94;94.41;99889.03;5229359;28;20591;-84
2023/02/10 03:38:03;;;;;;;44.53;28.83;;;-5.60;99.90;;;-4.99;94.92;99886.75;5225136;28;20193;-84
2023/02/10 03:40:37;;;;;;;47.93;31.83;;;-5.60;99.90;;;-4.96;95.19;99887.91;5232115;28;20193;-84
2023/02/10 03:43:10;;;;;;;44.60;29.83;;;-5.60;99.90;;;-5.01;93.55;99899.66;5223339;28;20229;-84
2023/02/10 03:45:43;;;;;;;42.37;27.40;;;-5.60;99.90;;;-5.02;95.69;99888.78;5226339;28;20225;-84
2023/02/10 03:48:17;;;;;;;41.63;27.17;;;-5.60;99.90;;;-5.01;95.00;99893.13;5227583;28;20251;-83
2023/02/10 03:50:51;;;;;;;39.23;26.27;;;-5.60;99.90;;;-4.96;95.00;99900.38;5224694;28;20293;-84
2023/02/10 03:53:25;;;;;;;43.47;26.23;;;-5.60;99.90;;;-4.96;94.93;99896.28;5222932;28;20222;-84
2023/02/10 03:55:58;;;;;;;45.23;28.13;;;-5.60;99.90;;;-5.01;95.48;99893.13;5226784;28;20229;-84
2023/02/10 03:58:31;;;;;;;40.67;27.80;;;-5.60;99.90;;;-4.95;95.32;99893.13;5229699;28;20262;-84
2023/02/10 04:01:11;;;;;;;41.30;27.60;;;-5.60;99.90;;;-4.98;93.93;99897.63;5226249;28;20217;-84
2023/02/10 04:03:45;;;;;;;41.57;29.20;;;-5.70;99.90;;;-5.15;94.32;99901.69;5223939;28;20220;-84
2023/02/10 04:06:20;;;;;;;43.00;28.60;;;-5.80;99.90;;;-5.20;93.77;99903.50;5229198;28;20217;-84
2023/02/10 04:08:53;;;;;;;41.47;28.60;;;-5.80;99.90;;;-5.13;93.33;99905.31;5231087;28;20193;-82
2023/02/10 04:11:26;;;;;;;43.17;28.00;;;-5.70;99.90;;;-5.10;94.43;99900.78;5227230;28;20232;-84
2023/02/10 04:13:59;;;;;;;41.50;27.63;;;-5.70;99.90;;;-5.10;93.94;99898.28;5228537;28;20217;-84
2023/02/10 04:16:33;;;;;;;38.63;26.80;;;-5.70;99.90;;;-5.15;94.55;99900.13;5226743;28;21535;-84
2023/02/10 04:19:06;;;;;;;46.13;28.57;;;-5.70;99.90;;;-5.09;95.22;99912.59;5230079;28;20673;-82
2023/02/10 04:21:41;;;;;;;42.70;28.70;;;-5.70;99.90;;;-5.13;94.33;99906.22;5228233;28;20224;-84
2023/02/10 04:24:14;;;;;;;38.73;28.03;;;-5.70;99.90;;;-5.09;95.40;99908.50;5227737;28;20304;-85
2023/02/10 04:26:47;;;;;;;42.53;28.17;;;-5.70;99.90;;;-5.13;95.01;99902.81;5231424;28;20266;-82
2023/02/10 04:29:20;;;;;;;43.13;28.87;;;-5.80;99.90;;;-5.20;95.94;99903.50;5222068;28;20256;-83
2023/02/10 04:31:53;;;;;;;43.00;28.33;;;-5.80;99.90;;;-5.22;94.09;99905.75;5229146;28;20702;-83
2023/02/10 04:34:26;;;;;;;40.87;28.17;;;-5.80;99.90;;;-5.25;94.62;99904.38;5236747;28;20217;-83
2023/02/10 04:37:01;;;;;;;40.80;27.37;;;-5.80;99.90;;;-5.35;95.37;99908.66;5237593;28;20267;-82
2023/02/10 04:39:34;;;;;;;43.13;29.03;;;-5.90;99.90;;;-5.29;95.64;99904.63;5239960;28;20295;-82
2023/02/10 04:42:07;;;;;;;43.83;29.03;;;-5.80;99.90;;;-5.28;95.02;99902.34;5240136;28;20253;-82
2023/02/10 04:44:40;;;;;;;46.73;29.90;;;-5.80;99.90;;;-5.21;95.88;99914.13;5240680;28;20340;-82
2023/02/10 04:47:13;;;;;;;47.43;31.47;;;-5.70;99.90;;;-5.10;94.65;99914.16;5233895;28;20218;-83
2023/02/10 04:49:46;;;;;;;45.70;29.73;;;-5.70;99.90;;;-5.00;96.42;99914.88;5241106;28;20200;-82
2023/02/10 04:52:21;;;;;;;45.23;29.97;;;-5.70;99.90;;;-5.01;94.69;99917.13;5243590;28;20193;-83
2023/02/10 04:54:54;;;;;;;39.40;28.40;;;-5.70;99.90;;;-5.04;94.62;99922.53;5241359;28;20198;-83
2023/02/10 04:57:27;;;;;;;45.77;31.93;;;-5.80;99.90;;;-5.08;94.40;99920.28;5244269;28;20256;-83
2023/02/10 05:00:01;;;;;;;44.37;29.30;;;-5.80;99.90;;;-5.24;94.91;99923.63;5237728;28;20205;-82
2023/02/10 05:02:34;;;;;;;40.87;26.70;;;-5.90;99.90;;;-5.25;94.67;99925.22;5242276;28;20209;-82
2023/02/10 05:05:08;;;;;;;39.47;27.63;;;-5.80;99.90;;;-5.24;94.13;99931.13;5240589;28;20252;-82
2023/02/10 05:07:43;;;;;;;43.93;29.00;;;-5.80;99.90;;;-5.24;95.17;99934.53;5239164;28;20298;-82
2023/02/10 05:10:16;;;;;;;40.83;28.43;;;-5.80;99.90;;;-5.20;94.44;99938.41;5243723;28;20264;-82
2023/02/10 05:12:49;;;;;;;43.87;29.07;;;-5.80;99.90;;;-5.27;94.63;99935.63;5241953;28;20209;-82
2023/02/10 05:15:24;;;;;;;44.17;28.50;;;-5.90;99.90;;;-5.26;95.43;99937.47;5227423;28;20181;-82
2023/02/10 05:17:57;;;;;;;44.77;29.10;;;-5.80;99.90;;;-5.22;94.19;99940.63;5243437;28;20185;-82
2023/02/10 05:20:30;;;;;;;42.40;28.70;;;-5.80;99.90;;;-5.24;95.37;99941.06;5242773;28;20197;-82
2023/02/10 05:23:04;;;;;;;38.70;27.37;;;-5.80;99.90;;;-5.23;95.18;99952.88;5247448;28;20201;-81
2023/02/10 05:25:37;;;;;;;41.07;28.87;;;-5.80;99.90;;;-5.27;94.28;99953.06;5247250;28;20211;-81
2023/02/10 05:28:11;;;;;;;46.43;29.40;;;-5.80;99.90;;;-5.29;96.10;99957.84;5244286;28;20224;-81
2023/02/10 05:30:44;;;;;;;47.47;30.77;;;-5.90;99.90;;;-5.25;94.56;99954.22;5241256;28;20246;-81
2023/02/10 05:33:17;;;;;;;44.13;30.00;;;-5.80;99.90;;;-5.26;94.77;99949.94;5246806;28;20201;-81
2023/02/10 05:35:50;;;;;;;43.67;30.43;;;-5.90;99.90;;;-5.27;95.52;99958.06;5247653;28;20188;-81
2023/02/10 05:38:26;;;;;;;44.07;29.33;;;-5.90;99.90;;;-5.32;94.69;99956.44;5246242;28;20201;-81
2023/02/10 05:40:59;;;;;;;43.23;29.50;;;-5.90;99.90;;;-5.34;96.10;99958.72;5244929;28;20189;-81
2023/02/10 05:43:32;;;;;;;44.30;30.60;;;-6.00;99.90;;;-5.31;95.87;99958.28;5246635;28;20217;-81
2023/02/10 05:46:05;;;;;;;49.07;32.40;;;-5.90;99.90;;;-5.29;95.44;99961.94;5244267;28;20216;-82
2023/02/10 05:48:39;;;;;;;45.63;30.13;;;-5.90;99.90;;;-5.30;95.50;99953.53;5243123;28;20208;-82
2023/02/10 05:51:12;;;;;;;47.33;30.27;;;-5.90;99.90;;;-5.30;95.37;99961.00;5245164;28;20217;-82
2023/02/10 05:53:46;;;;;;;41.27;29.43;;;-5.90;99.90;;;-5.29;95.33;99957.84;5247894;28;20235;-83
2023/02/10 05:56:19;;;;;;;40.53;29.63;;;-5.80;99.90;;;-5.47;94.44;99965.91;5246002;28;20220;-82
2023/02/10 05:58:52;;;;;;;42.33;29.30;;;-6.00;99.90;;;-5.32;95.81;99966.41;5246111;28;20181;-82
2023/02/10 06:01:26;;;;;;;42.93;29.63;;;-5.90;99.90;;;-5.26;94.11;99974.84;5238688;28;20201;-82
2023/02/10 06:03:59;;;;;;;47.57;30.90;;;-5.90;99.90;;;-5.22;94.46;99979.59;5244978;28;20226;-81
2023/02/10 06:06:32;;;;;;;46.33;30.77;;;-5.80;99.90;;;-5.24;95.41;99983.44;5244230;28;20198;-81
2023/02/10 06:09:07;;;;;;;44.90;28.63;;;-5.80;99.90;;;-5.16;94.58;99980.53;5246829;28;20181;-82
2023/02/10 06:11:40;;;;;;;45.27;29.43;;;-5.90;99.90;;;-5.18;95.09;99981.88;5251472;28;20172;-81
2023/02/10 06:14:13;;;;;;;41.63;28.70;;;-5.90;99.90;;;-5.24;94.49;99979.41;5246501;28;20302;-83
2023/02/10 06:16:47;;;;;;;43.80;29.63;;;-5.90;99.90;;;-5.33;94.17;99987.03;5234547;28;20224;-82
2023/02/10 06:19:21;;;;;;;42.67;29.23;;;-6.00;99.90;;;-5.34;95.11;99986.13;5234355;28;20584;-82
2023/02/10 06:21:54;;;;;;;43.60;29.97;;;-6.00;99.90;;;-5.34;94.37;99987.72;5234614;28;20605;-83
2023/02/10 06:24:28;;;;;;;45.47;28.23;;;-6.00;99.90;;;-5.34;94.47;99992.72;5231745;28;20224;-83
2023/02/10 06:27:02;;;;;;;43.90;29.73;;;-6.00;99.90;;;-5.39;94.70;99992.00;5235872;28;20284;-83
2023/02/10 06:29:35;;;;;;;44.03;30.07;;;-6.00;99.90;;;-5.39;95.03;99994.50;5230257;28;20201;-83
2023/02/10 06:32:11;;;;;;;44.97;29.47;;;-6.00;99.90;;;-5.32;95.83;99996.31;5237260;28;20197;-83
2023/02/10 06:34:45;;;;;;;44.97;28.90;;;-6.00;99.90;;;-5.44;94.58;99998.78;5236001;28;20225;-82
2023/02/10 06:37:18;;;;;;;44.10;30.03;;;-6.00;99.90;;;-5.38;95.47;99998.78;5232359;28;20247;-83
2023/02/10 06:39:53;;;;;;;45.80;31.33;;;-6.10;99.90;;;-5.38;94.99;100005.34;5230666;28;20219;-83
2023/02/10 06:42:26;;;;;;;47.67;31.60;;;-6.00;99.90;;;-5.45;95.14;100001.94;5226799;28;20193;-82
2023/02/10 06:44:59;;;;;;;50.23;31.70;;;-6.10;99.90;;;-5.41;95.52;99999.91;5236184;28;20341;-82
2023/02/10 06:47:32;;;;;;;47.03;30.07;;;-6.10;99.90;;;-5.33;95.26;100014.44;5216966;28;20221;-83
2023/02/10 06:50:07;;;;;;;43.60;30.77;;;-6.00;99.90;;;-5.36;95.13;100016.47;5231838;28;20769;-83
2023/02/10 06:52:40;;;;;;;43.73;29.10;;;-6.00;99.90;;;-5.30;95.05;100022.38;5233193;28;20235;-83
2023/02/10 06:55:16;;;;;;;44.83;29.53;;;-6.00;99.90;;;-5.27;95.19;100027.84;5234244;28;20469;-84
2023/02/10 06:57:50;;;;;;;45.50;30.23;;;-6.00;99.90;;;-5.32;95.14;100028.72;5232885;28;20205;-83
2023/02/10 07:00:23;;;;;;;43.47;29.93;;;-6.00;99.90;;;-5.29;94.40;100024.22;5233647;28;21529;-84
2023/02/10 07:02:56;;;;;;;43.97;30.00;;;-6.00;99.90;;;-5.24;94.42;100035.78;5231794;28;20269;-84
2023/02/10 07:05:31;;;;;;;43.20;29.60;;;-5.90;99.90;;;-5.24;93.42;100044.19;5222691;28;20238;-86
2023/02/10 07:08:04;;;;;;;47.07;30.20;;;-6.00;99.90;;;-5.25;94.47;100043.94;5227811;28;20278;-84
2023/02/10 07:10:42;;;;;;;45.63;30.70;;;-5.90;99.90;;;-5.24;94.56;100039.19;5232289;28;20669;-83
2023/02/10 07:13:15;;;;;;;49.63;31.60;;;-5.80;99.90;;;-5.10;94.71;100041.28;5232083;28;20307;-84
2023/02/10 07:15:48;;;;;;;46.40;29.70;;;-5.80;99.90;;;-5.08;93.55;100037.44;5232850;28;20225;-82
2023/02/10 07:18:22;;;;;;;48.07;30.70;;;-5.70;99.90;;;-4.99;94.15;100033.84;5232672;28;20228;-83
2023/02/10 07:20:55;;;;;;;45.73;30.73;;;-5.60;99.90;;;-4.80;93.75;100030.06;5226490;28;20226;-83
2023/02/10 07:23:28;;;;;;;39.57;29.90;;;-5.50;99.90;;;-4.60;92.70;100030.56;5233618;28;20225;-84
2023/02/10 07:26:11;;;;;;;47.93;29.53;;;-5.40;99.90;;;-4.50;92.18;100031.94;5231319;28;20201;-83
2023/02/10 07:28:45;;;;;;;42.00;31.43;;;-5.30;99.90;;;-4.34;92.87;100031.06;5232237;28;20243;-84
2023/02/10 07:31:18;;;;;;;43.97;29.23;;;-5.10;99.90;;;-4.20;91.08;100046.50;5234683;28;20197;-84
2023/02/10 07:33:52;;;;;;;43.27;28.63;;;-5.00;99.90;;;-4.09;91.72;100043.09;5234390;28;20221;-83
2023/02/10 07:36:26;;;;;;;40.60;29.07;;;-4.90;99.90;;;-3.91;90.99;100042.41;5235706;28;20224;-84
2023/02/10 07:38:59;;;;;;;45.63;31.87;;;-4.70;99.90;;;-3.79;89.80;100054.19;5235900;28;20280;-85
2023/02/10 07:41:33;;;;;;;45.40;30.30;;;-4.70;99.90;;;-3.71;88.70;100042.84;5228508;28;20202;-84
2023/02/10 07:44:07;;;;;;;41.70;28.40;;;-4.60;99.90;;;-3.64;89.21;100056.44;5236047;28;20647;-84
2023/02/10 07:46:40;;;;;;;44.20;30.30;;;-4.50;99.90;;;-3.58;88.50;100056.44;5235281;28;20690;-84
2023/02/10 07:49:13;;;;;;;42.97;31.27;;;-4.50;99.90;;;-3.54;88.41;100062.81;5235230;28;20221;-84
2023/02/10 07:51:47;;;;;;;45.27;31.10;;;-4.50;99.90;;;-3.59;88.12;100059.63;5239689;28;20204;-84
2023/02/10 07:54:20;;;;;;;44.83;30.27;;;-4.40;99.90;;;-3.57;88.58;100057.34;5236373;28;20323;-83
2023/02/10 07:56:55;;;;;;;44.30;30.37;;;-4.40;99.90;;;-3.58;87.67;100058.03;5234780;28;20203;-82
2023/02/10 07:59:28;;;;;;;44.53;30.70;;;-4.30;99.90;;;-3.66;87.72;100065.31;5236532;28;20201;-83
2023/02/10 08:02:01;;;;;;;43.90;31.63;;;-4.30;99.90;;;-3.47;88.16;100058.00;5245735;28;20197;-82
2023/02/10 08:04:34;;;;;;;44.53;31.37;;;-4.20;99.90;;;-3.36;88.60;100057.97;5242994;28;20225;-84
2023/02/10 08:07:07;;;;;;;42.43;30.77;;;-4.10;99.90;;;-3.31;86.98;100049.56;5226125;28;20229;-83
2023/02/10 08:09:40;;;;;;;43.50;30.87;;;-3.90;99.90;;;-3.12;87.37;100047.22;5229880;28;20225;-83
2023/02/10 08:12:15;;;;;;;45.40;31.43;;;-3.90;99.90;;;-2.99;87.04;100055.81;5227469;28;20244;-84
2023/02/10 08:14:48;;;;;;;46.73;30.77;;;-3.70;99.90;;;-3.11;85.81;100049.06;5226514;28;20225;-83
2023/02/10 08:17:22;;;;;;;45.67;31.40;;;-3.80;99.90;;;-3.02;86.34;100046.28;5227992;28;20297;-83
2023/02/10 08:19:55;;;;;;;42.07;30.83;;;-3.60;99.90;;;-2.80;87.56;100039.38;5218202;28;20671;-83
2023/02/10 08:22:28;;;;;;;48.87;32.97;;;-3.50;99.90;;;-2.64;87.60;100043.34;5229511;28;20209;-83
2023/02/10 08:25:02;;;;;;;45.53;30.67;;;-3.20;99.90;;;-2.32;86.96;100037.00;5231301;28;20201;-83
2023/02/10 08:27:36;;;;;;;45.63;30.87;;;-3.00;99.90;;;-2.15;87.01;100041.88;5217240;28;20222;-83
2023/02/10 08:30:11;;;;;;;45.13;32.70;;;-2.90;99.90;;;-1.92;85.53;100048.53;5225494;28;20211;-84
2023/02/10 08:32:44;;;;;;;47.80;30.80;;;-2.70;99.90;;;-1.84;84.54;100044.59;5226685;28;20208;-84
2023/02/10 08:35:20;;;;;;;48.93;33.07;;;-2.60;99.90;;;-1.54;84.10;100037.94;5230112;28;20199;-84
2023/02/10 08:37:53;;;;;;;47.27;32.87;;;-2.30;99.90;;;-1.52;83.53;100040.66;5229124;28;20232;-84
2023/02/10 08:40:26;;;;;;;42.60;31.80;;;-2.30;99.90;;;-1.53;83.63;100043.88;5229270;28;20288;-84
2023/02/10 08:43:01;;;;;;;39.33;30.83;;;-2.20;99.90;;;-1.47;83.52;100050.63;5222249;28;20315;-84
2023/02/10 08:45:37;;;;;;;41.13;30.97;;;-2.30;99.90;;;-1.27;83.63;100057.50;5222190;28;20201;-84
2023/02/10 08:48:11;;;;;;;45.33;31.87;;;-2.10;99.90;;;-1.00;83.32;100053.78;5229689;28;20221;-84
2023/02/10 08:50:44;;;;;;;49.50;34.17;;;-1.80;99.90;;;-0.87;82.49;100061.34;5227604;28;20292;-83
2023/02/10 08:53:21;;;;;;;45.47;33.53;;;-1.70;99.90;;;-0.77;82.00;100059.41;5227167;28;20276;-84
2023/02/10 08:55:58;;;;;;;44.23;32.67;;;-1.50;99.90;;;-0.61;81.24;100061.47;5221701;28;20273;-84
2023/02/10 08:58:34;;;;;;;46.90;32.37;;;-1.30;99.90;;;-0.46;80.51;100056.94;5224350;28;20710;-84
2023/02/10 09:01:13;;;;;;;47.67;33.10;;;-1.20;99.90;;;-0.41;80.48;100059.16;5227899;28;20212;-84
2023/02/10 09:03:46;;;;;;;44.50;33.87;;;-1.20;99.90;;;-0.44;80.01;100053.72;5230019;28;20220;-85
2023/02/10 09:06:23;;;;;;;46.73;34.13;;;-1.20;99.90;;;-0.37;80.51;100052.25;5222512;28;20297;-84
2023/02/10 09:08:56;;;;;;;46.50;33.33;;;-1.10;99.90;;;-0.28;81.79;100053.47;5225285;28;20221;-83
2023/02/10 09:11:29;;;;;;;44.43;33.93;;;-0.90;99.90;;;-0.08;80.27;100055.25;5223027;28;20224;-83
2023/02/10 09:14:03;;;;;;;45.90;33.57;;;-0.80;99.90;;;0.05;79.56;100052.72;5223326;28;20352;-83
2023/02/10 09:16:37;;;;;;;44.20;32.07;;;-0.70;99.90;;;0.23;80.11;100055.19;5225883;28;20232;-84
2023/02/10 09:19:10;;;;;;;45.73;34.50;;;-0.40;99.90;;;0.38;79.39;100042.09;5228265;28;20794;-81
2023/02/10 09:21:44;;;;;;;46.47;34.13;;;-0.20;99.90;;;0.54;79.17;100045.00;5223601;28;20395;-84
2023/02/10 09:24:19;;;;;;;47.23;33.83;;;-0.10;99.90;;;0.71;78.88;100044.69;5225609;28;20721;-85
2023/02/10 09:26:52;;;;;;;42.37;32.80;;;0.10;99.90;;;0.93;77.66;100040.84;5220628;28;20283;-85
2023/02/10 09:29:27;;;;;;;48.23;34.83;;;0.20;99.90;;;1.05;77.90;100034.88;5222770;28;20303;-84
2023/02/10 09:32:00;;;;;;;44.43;33.53;;;0.40;99.90;;;1.36;76.25;100031.25;5222437;28;20268;-83
2023/02/10 09:34:33;;;;;;;45.30;34.20;;;0.70;99.90;;;1.49;74.70;100036.25;5221016;28;20224;-86
2023/02/10 09:37:07;;;;;;;43.77;33.47;;;0.90;99.90;;;1.44;75.91;100033.13;5227933;28;20273;-84
2023/02/10 09:39:41;;;;;;;46.50;33.47;;;0.80;99.90;;;1.52;76.28;100031.59;5229497;28;20194;-86
2023/02/10 09:42:25;;;;;;;42.63;34.07;;;0.80;99.90;;;1.51;76.57;100034.81;5231392;28;20207;-85
2023/02/10 09:45:10;;;;;;;44.63;34.53;;;0.80;99.90;;;1.72;76.43;100029.97;5236800;28;20220;-86
2023/02/10 09:47:49;;;;;;;44.43;33.43;;;1.00;99.90;;;1.98;74.75;100027.31;5238436;28;20232;-86
2023/02/10 09:50:33;;;;;;;43.23;32.73;;;1.30;99.90;;;1.93;75.11;100033.38;5238481;28;20263;-86
2023/02/10 09:53:13;;;;;;;46.93;33.60;;;1.30;99.90;;;2.06;75.49;100034.22;5239180;28;20630;-86
2023/02/10 09:55:49;;;;;;;44.13;33.03;;;1.40;99.90;;;2.15;75.08;100032.84;5231363;28;20196;-86
2023/02/10 09:58:31;;;;;;;43.77;33.20;;;1.50;99.90;;;2.22;75.43;100040.44;5233117;28;20210;-88
2023/02/10 10:01:18;;;;;;;42.37;32.60;;;1.60;99.90;;;2.49;74.38;100031.97;5229179;28;20242;-84
2023/02/10 10:03:58;;;;;;;41.97;32.20;;;1.80;99.90;;;2.67;73.31;100034.22;5227596;28;20248;-84
2023/02/10 10:06:34;;;;;;;43.63;32.03;;;2.10;99.90;;;2.90;72.43;100041.19;5228795;28;20282;-85
2023/02/10 10:09:24;;;;;;;45.47;33.90;;;2.20;99.90;;;3.07;71.38;100044.13;5226292;28;20734;-84
2023/02/10 10:11:58;;;;;;;43.63;33.43;;;2.40;99.90;;;3.12;72.35;100045.59;5222117;28;20237;-84
2023/02/10 10:14:38;;;;;;;41.53;33.73;;;2.40;99.90;;;3.21;72.28;100047.44;5220854;28;20684;-83
2023/02/10 10:17:44;;;;;;;40.43;32.37;;;2.50;99.90;;;3.19;71.66;100038.75;5225404;28;20295;-84
2023/02/10 10:20:37;;;;;;;46.33;33.17;;;2.60;99.90;;;3.47;70.48;100040.44;5232706;28;20216;-84
2023/02/10 10:23:36;;;;;;;45.07;34.57;;;2.80;99.90;;;3.55;70.91;100037.22;5220885;28;20217;-84
2023/02/10 10:26:20;;;;;;;41.27;32.43;;;2.90;99.90;;;3.60;69.82;100031.06;5222160;28;20255;-84
2023/02/10 10:29:21;;;;;;;42.27;31.57;;;3.00;99.90;;;3.68;69.07;100025.28;5232135;28;20257;-86
2023/02/10 10:32:07;;;;;;;40.13;31.33;;;3.00;99.90;;;3.80;68.91;100013.19;5232850;28;20197;-84
2023/02/10 10:34:52;;;;;;;39.23;30.73;;;3.20;99.90;;;3.78;67.83;100010.50;5231723;28;20251;-83
2023/02/10 10:37:27;;;;;;;39.57;30.73;;;3.20;99.90;;;3.89;68.91;100011.75;5231092;28;20242;-84
2023/02/10 10:40:05;;;;;;;40.83;31.97;;;3.30;99.90;;;4.07;67.60;100013.00;5225575;28;20265;-84
2023/02/10 10:42:46;;;;;;;40.53;30.40;;;3.40;99.90;;;4.07;67.31;100008.84;5232463;28;20192;-85
2023/02/10 10:45:23;;;;;;;39.43;29.73;;;3.50;99.90;;;4.30;66.82;100008.09;5234055;28;20255;-83